Time;durP1;ratioP1;P1;durP2;ratioP2;P2;SDS_P1;SDS_P2;PMS_P1;PMS_P2;Temp;Humidity;BMP_temperature;BMP_pressure;BME280_temperature;BME280_humidity;BME280_pressure;Samples;Min_cycle;Max_cycle;Signal;HPM_P1;HPM_P2
2021/12/26 00:00:55;;;;;;;;;;;;;;;-12.22;100.00;100811.41;5037513;28;1118;-76
2021/12/26 00:03:22;;;;;;;;;;;;;;;-12.25;100.00;100797.41;5036889;28;1259;-79
2021/12/26 00:05:48;;;;;;;;;;;;;;;-12.30;100.00;100798.22;5035021;28;794;-77
2021/12/26 00:08:15;;;;;;;;;;;;;;;-12.34;100.00;100795.56;5032529;28;1022;-77
2021/12/26 00:10:41;;;;;;;;;;;;;;;-12.39;100.00;100795.47;5033175;28;908;-79
2021/12/26 00:13:07;;;;;;;;;;;;;;;-12.42;100.00;100800.66;5033995;28;1891;-78
2021/12/26 00:15:35;;;;;;;;;;;;;;;-12.45;100.00;100795.41;5033344;28;912;-78
2021/12/26 00:18:01;;;;;;;;;;;;;;;-12.47;100.00;100791.88;5033020;28;1094;-77
2021/12/26 00:20:27;;;;;;;;;;;;;;;-12.50;100.00;100787.47;5033442;28;903;-78
2021/12/26 00:22:54;;;;;;;;;;;;;;;-12.52;100.00;100781.38;5033192;28;1050;-78
2021/12/26 00:25:20;;;;;;;;;;;;;;;-12.52;100.00;100777.84;5031840;28;1384;-79
2021/12/26 00:27:47;;;;;;;;;;;;;;;-12.57;100.00;100776.91;5032928;28;1111;-77
2021/12/26 00:30:14;;;;;;;;;;;;;;;-12.62;100.00;100775.09;5033566;28;954;-78
2021/12/26 00:32:42;;;;;;;;;;;;;;;-12.65;100.00;100782.03;5032374;28;813;-78
2021/12/26 00:35:10;;;;;;;;;;;;;;;-12.64;100.00;100789.91;5030650;28;1918;-76
2021/12/26 00:37:36;;;;;;;;;;;;;;;-12.68;100.00;100782.88;5030250;28;1405;-79
2021/12/26 00:40:03;;;;;;;;;;;;;;;-12.67;100.00;100791.59;5031566;28;967;-78
2021/12/26 00:42:29;;;;;;;;;;;;;;;-12.66;100.00;100785.50;5030240;28;801;-78
2021/12/26 00:44:56;;;;;;;;;;;;;;;-12.65;100.00;100797.75;5030321;28;1310;-79
2021/12/26 00:47:22;;;;;;;;;;;;;;;-12.70;100.00;100795.03;5030002;28;958;-78
2021/12/26 00:49:49;;;;;;;;;;;;;;;-12.72;100.00;100804.59;5031562;28;1009;-78
2021/12/26 00:52:18;;;;;;;;;;;;;;;-12.74;100.00;100803.69;5031610;28;1002;-77
2021/12/26 00:54:44;;;;;;;;;;;;;;;-12.72;100.00;100798.50;5029878;28;1985;-78
2021/12/26 00:57:11;;;;;;;;;;;;;;;-12.73;100.00;100799.34;5031238;28;1038;-79
2021/12/26 00:59:38;;;;;;;;;;;;;;;-12.73;100.00;100801.94;5030406;28;1026;-79
2021/12/26 01:02:04;;;;;;;;;;;;;;;-12.73;100.00;100810.69;5031432;28;944;-78
2021/12/26 01:04:31;;;;;;;;;;;;;;;-12.75;100.00;100807.16;5030019;28;1329;-77
2021/12/26 01:07:06;;;;;;;;;;;;;;;-12.78;100.00;100804.50;5029970;28;797;-75
2021/12/26 01:09:32;;;;;;;;;;;;;;;-12.79;100.00;100810.59;5013824;28;1011;-78
2021/12/26 01:12:10;;;;;;;;;;;;;;;-12.81;100.00;100807.09;5030016;28;1544;-77
2021/12/26 01:14:45;;;;;;;;;;;;;;;-12.79;100.00;100802.75;5029859;28;1926;-77
2021/12/26 01:17:31;;;;;;;;;;;;;;;-12.83;100.00;100806.16;5031191;28;1530;-78
2021/12/26 01:20:13;;;;;;;;;;;;;;;-12.85;100.00;100800.03;5033108;28;1089;-79
2021/12/26 01:22:41;;;;;;;;;;;;;;;-12.88;100.00;100805.22;5031241;28;943;-78
2021/12/26 01:25:12;;;;;;;;;;;;;;;-12.93;100.00;100802.53;5031683;28;1582;-79
2021/12/26 01:27:38;;;;;;;;;;;;;;;-12.96;100.00;100802.47;5031009;28;718;-77
2021/12/26 01:30:05;;;;;;;;;;;;;;;-12.98;100.00;100809.44;5014990;28;1153;-78
2021/12/26 01:32:32;;;;;;;;;;;;;;;-12.98;100.00;100805.06;5031062;28;904;-78
2021/12/26 01:35:06;;;;;;;;;;;;;;;-12.99;100.00;100802.44;5024566;23;3524;-76
2021/12/26 01:37:44;;;;;;;;;;;;;;;-13.00;100.00;100812.03;5025859;28;1350;-73
2021/12/26 01:40:44;;;;;;;;;;;;;;;-13.04;100.00;100805.00;5009957;28;1098;-73
2021/12/26 01:43:25;;;;;;;;;;;;;;;-13.08;100.00;100813.59;5026417;28;1220;-74
2021/12/26 01:45:58;;;;;;;;;;;;;;;-13.08;100.00;100813.59;5026311;28;1378;-75
2021/12/26 01:48:24;;;;;;;;;;;;;;;-13.09;100.00;100814.47;5026476;28;750;-75
2021/12/26 01:50:52;;;;;;;;;;;;;;;-13.10;100.00;100815.31;5026454;28;931;-75
2021/12/26 01:53:22;;;;;;;;;;;;;;;-13.14;100.00;100808.28;5026264;28;1976;-73
2021/12/26 01:55:50;;;;;;;;;;;;;;;-13.15;100.00;100807.41;5026201;28;1358;-73
2021/12/26 01:58:17;;;;;;;;;;;;;;;-13.16;100.00;100805.66;5027974;28;931;-74
2021/12/26 02:00:46;;;;;;;;;;;;;;;-13.15;100.00;100811.75;5013605;28;1062;-75
2021/12/26 02:03:12;;;;;;;;;;;;;;;-13.15;100.00;100804.78;5029805;28;836;-75
2021/12/26 02:05:39;;;;;;;;;;;;;;;-13.15;100.00;100794.31;5012957;28;2001;-74
2021/12/26 02:08:08;;;;;;;;;;;;;;;-13.15;100.00;100796.94;5030613;28;816;-75
2021/12/26 02:10:36;;;;;;;;;;;;;;;-13.15;100.00;100791.72;5029928;28;754;-74
2021/12/26 02:13:03;;;;;;;;;;;;;;;-13.14;100.00;100797.84;5013878;28;974;-75
2021/12/26 02:15:29;;;;;;;;;;;;;;;-13.13;100.00;100799.59;5031678;28;1250;-75
2021/12/26 02:18:10;;;;;;;;;;;;;;;-13.17;100.00;100795.19;5013489;28;999;-74
2021/12/26 02:20:50;;;;;;;;;;;;;;;-13.18;100.00;100793.41;5029920;28;856;-76
2021/12/26 02:23:24;;;;;;;;;;;;;;;-13.19;100.00;100795.13;5013340;28;999;-75
2021/12/26 02:28:33;;;;;;;;;;;;;;;-13.25;100.00;100791.53;5011991;28;1016;-75
2021/12/26 02:31:00;;;;;;;;;;;;;;;-13.28;100.00;100791.50;5014201;28;700;-75
2021/12/26 02:33:26;;;;;;;;;;;;;;;-13.32;100.00;100796.69;5029291;28;1014;-75
2021/12/26 02:35:54;;;;;;;;;;;;;;;-13.33;100.00;100794.91;5029121;28;1292;-74
2021/12/26 02:38:21;;;;;;;;;;;;;;;-13.32;100.00;100804.50;5029405;28;1288;-73
2021/12/26 02:40:48;;;;;;;;;;;;;;;-13.33;100.00;100792.28;5029268;28;899;-75
2021/12/26 02:43:17;;;;;;;;;;;;;;;-13.33;100.00;100794.03;5012871;28;974;-73
2021/12/26 02:45:43;;;;;;;;;;;;;;;-13.33;100.00;100796.66;5028801;28;1979;-74
2021/12/26 02:48:10;;;;;;;;;;;;;;;-13.35;100.00;100798.34;5029290;28;793;-75
2021/12/26 02:50:38;;;;;;;;;;;;;;;-13.36;100.00;100801.84;5028866;28;1010;-75
2021/12/26 02:53:07;;;;;;;;;;;;;;;-13.38;100.00;100796.59;5029027;28;840;-74
2021/12/26 02:55:34;;;;;;;;;;;;;;;-13.39;100.00;100789.59;5029026;28;1305;-74
2021/12/26 02:58:01;;;;;;;;;;;;;;;-13.38;100.00;100801.81;5013529;28;915;-75
2021/12/26 03:00:31;;;;;;;;;;;;;;;-13.40;100.00;100806.16;5029010;28;955;-74
2021/12/26 03:02:58;;;;;;;;;;;;;;;-13.37;100.00;100808.81;5028918;28;998;-76
2021/12/26 03:05:33;;;;;;;;;;;;;;;-13.37;100.00;100803.59;5012019;28;1939;-76
2021/12/26 03:07:59;;;;;;;;;;;;;;;-13.38;100.00;100807.03;5012943;28;1456;-73
2021/12/26 03:10:27;;;;;;;;;;;;;;;-13.36;100.00;100807.97;5012165;28;1613;-72
2021/12/26 03:12:55;;;;;;;;;;;;;;;-13.37;100.00;100810.53;5012001;28;979;-75
2021/12/26 03:15:22;;;;;;;;;;;;;;;-13.38;100.00;100799.19;5012018;28;1393;-73
2021/12/26 03:17:49;;;;;;;;;;;;;;;-13.40;100.00;100808.75;5026417;28;2358;-74
2021/12/26 03:20:16;;;;;;;;;;;;;;;-13.40;100.00;100806.16;5011409;28;1015;-73
2021/12/26 03:22:45;;;;;;;;;;;;;;;-13.38;100.00;100799.19;4993160;28;1046;-74
2021/12/26 03:25:12;;;;;;;;;;;;;;;-13.38;100.00;100799.19;4991764;28;1915;-75
2021/12/26 03:27:40;;;;;;;;;;;;;;;-13.41;100.00;100788.72;4991634;28;1057;-72
2021/12/26 03:30:06;;;;;;;;;;;;;;;-13.43;100.00;100790.41;4991869;28;816;-75
2021/12/26 03:32:35;;;;;;;;;;;;;;;-13.43;100.00;100789.53;4991982;28;1062;-74
2021/12/26 03:35:01;;;;;;;;;;;;;;;-13.42;100.00;100794.78;4993047;28;1317;-75
2021/12/26 03:37:28;;;;;;;;;;;;;;;-13.43;100.00;100790.41;4991772;28;1026;-74
2021/12/26 03:39:56;;;;;;;;;;;;;;;-13.41;100.00;100788.72;4991874;28;655;-73
2021/12/26 03:42:22;;;;;;;;;;;;;;;-13.40;100.00;100784.34;4992044;28;999;-72
2021/12/26 03:44:52;;;;;;;;;;;;;;;-13.42;100.00;100784.34;4991700;28;1914;-73
2021/12/26 03:47:19;;;;;;;;;;;;;;;-13.44;100.00;100791.25;4991672;28;951;-75
2021/12/26 03:49:47;;;;;;;;;;;;;;;-13.46;100.00;100795.59;4993122;28;979;-74
2021/12/26 03:52:13;;;;;;;;;;;;;;;-13.49;100.00;100792.94;4991834;28;971;-76
2021/12/26 03:54:40;;;;;;;;;;;;;;;-13.53;100.00;100794.59;4991608;28;1507;-74
2021/12/26 03:57:06;;;;;;;;;;;;;;;-13.54;100.00;100800.66;4991246;28;1011;-74
2021/12/26 03:59:34;;;;;;;;;;;;;;;-13.56;100.00;100796.25;4991746;28;931;-75
2021/12/26 04:02:01;;;;;;;;;;;;;;;-13.57;100.00;100798.00;4991556;28;924;-74
2021/12/26 04:04:28;;;;;;;;;;;;;;;-13.64;100.00;100789.19;4991516;28;1991;-75
2021/12/26 04:06:54;;;;;;;;;;;;;;;-13.66;100.00;100790.00;5007453;28;1042;-73
2021/12/26 04:09:21;;;;;;;;;;;;;;;-13.67;100.00;100786.53;4991056;28;927;-74
2021/12/26 04:11:47;;;;;;;;;;;;;;;-13.67;100.00;100778.69;4990705;28;1010;-74
2021/12/26 04:14:15;;;;;;;;;;;;;;;-13.70;100.00;100783.84;4992042;28;1290;-72
2021/12/26 04:16:42;;;;;;;;;;;;;;;-13.72;100.00;100782.94;4991224;28;986;-74
2021/12/26 04:19:10;;;;;;;;;;;;;;;-13.70;100.00;100791.66;4991325;28;986;-73
2021/12/26 04:21:36;;;;;;;;;;;;;;;-13.69;100.00;100796.03;4991142;28;829;-74
2021/12/26 04:24:04;;;;;;;;;;;;;;;-13.73;100.00;100795.94;4991318;28;1309;-75
2021/12/26 04:26:30;;;;;;;;;;;;;;;-13.77;100.00;100791.50;4992105;28;1977;-73
2021/12/26 04:28:57;;;;;;;;;;;;;;;-13.81;100.00;100786.25;4991309;28;975;-74
2021/12/26 04:31:23;;;;;;;;;;;;;;;-13.82;100.00;100794.06;4992054;28;833;-73
2021/12/26 04:33:50;;;;;;;;;;;;;;;-13.79;100.00;100795.84;4992741;28;805;-75
2021/12/26 04:36:20;;;;;;;;;;;;;;;-13.82;100.00;100789.69;4990543;28;1290;-72
2021/12/26 04:38:46;;;;;;;;;;;;;;;-13.81;100.00;100799.28;4991111;28;1006;-72
2021/12/26 04:41:14;;;;;;;;;;;;;;;-13.83;100.00;100800.13;4991166;28;855;-73
2021/12/26 04:44:09;;;;;;;;;;;;;;;-13.83;100.00;100792.28;4991932;28;1406;-73
2021/12/26 04:46:44;;;;;;;;;;;;;;;-13.87;100.00;100796.56;4990638;28;1370;-73
2021/12/26 04:49:20;;;;;;;;;;;;;;;-13.86;100.00;100800.06;4991025;28;1175;-72
2021/12/26 04:51:48;;;;;;;;;;;;;;;-13.87;100.00;100793.06;4991164;28;1398;-75
2021/12/26 04:54:15;;;;;;;;;;;;;;;-13.85;100.00;100796.63;4990768;28;1389;-74
2021/12/26 04:56:43;;;;;;;;;;;;;;;-13.81;100.00;100799.28;4990511;28;1281;-74
2021/12/26 04:59:09;;;;;;;;;;;;;;;-13.78;100.00;100797.63;4974421;28;1212;-72
2021/12/26 05:01:36;;;;;;;;;;;;;;;-13.76;100.00;100794.19;4990794;28;986;-74
2021/12/26 05:04:02;;;;;;;;;;;;;;;-13.71;100.00;100789.91;4991795;28;1407;-73
2021/12/26 05:06:29;;;;;;;;;;;;;;;-13.67;100.00;100789.13;4991491;28;1981;-74
2021/12/26 05:08:56;;;;;;;;;;;;;;;-13.67;100.00;100796.97;4992090;28;1014;-73
2021/12/26 05:11:23;;;;;;;;;;;;;;;-13.70;100.00;100790.78;5010065;28;1663;-72
2021/12/26 05:13:49;;;;;;;;;;;;;;;-13.74;100.00;100788.97;5011538;28;919;-74
2021/12/26 05:16:16;;;;;;;;;;;;;;;-13.76;100.00;100794.19;5009878;28;1309;-74
2021/12/26 05:18:43;;;;;;;;;;;;;;;-13.81;100.00;100788.84;5010141;28;995;-72
2021/12/26 05:21:11;;;;;;;;;;;;;;;-13.84;100.00;100793.13;5010329;28;1010;-72
2021/12/26 05:23:37;;;;;;;;;;;;;;;-13.87;100.00;100793.06;4993866;28;1229;-73
2021/12/26 05:26:06;;;;;;;;;;;;;;;-13.90;100.00;100795.63;5009644;28;1907;-72
2021/12/26 05:28:34;;;;;;;;;;;;;;;-13.91;100.00;100791.25;5010105;28;872;-72
2021/12/26 05:31:01;;;;;;;;;;;;;;;-13.90;100.00;100790.41;5010216;28;928;-74
2021/12/26 05:33:33;;;;;;;;;;;;;;;-13.94;100.00;100786.84;4995906;28;1549;-73
2021/12/26 05:36:00;;;;;;;;;;;;;;;-13.94;100.00;100786.84;4997025;28;1340;-73
2021/12/26 05:38:28;;;;;;;;;;;;;;;-14.00;100.00;100782.41;5014040;28;1065;-73
2021/12/26 05:40:54;;;;;;;;;;;;;;;-14.03;100.00;100795.41;5013846;28;880;-73
2021/12/26 05:43:22;;;;;;;;;;;;;;;-14.03;100.00;100784.97;5013688;28;943;-74
2021/12/26 05:45:48;;;;;;;;;;;;;;;-14.04;100.00;100787.50;5013359;28;1981;-73
2021/12/26 05:48:18;;;;;;;;;;;;;;;-14.07;100.00;100790.06;5013455;28;1078;-72
2021/12/26 05:50:45;;;;;;;;;;;;;;;-14.06;100.00;100789.22;5013588;28;1049;-73
2021/12/26 05:53:31;;;;;;;;;;;;;;;-14.05;100.00;100794.47;5014411;28;1174;-73
2021/12/26 05:55:58;;;;;;;;;;;;;;;-14.08;100.00;100778.78;5013134;28;1330;-73
2021/12/26 05:58:25;;;;;;;;;;;;;;;-14.08;100.00;100789.22;5013547;28;746;-73
2021/12/26 06:00:53;;;;;;;;;;;;;;;-14.07;100.00;100790.94;5013452;28;1018;-73
2021/12/26 06:03:19;;;;;;;;;;;;;;;-14.06;100.00;100795.31;5013580;28;813;-72
2021/12/26 06:05:45;;;;;;;;;;;;;;;-14.09;100.00;100796.97;5013123;28;1914;-73
2021/12/26 06:08:12;;;;;;;;;;;;;;;-14.14;100.00;100786.47;5029773;28;1058;-72
2021/12/26 06:10:40;;;;;;;;;;;;;;;-14.17;100.00;100783.81;5013324;28;1264;-74
2021/12/26 06:13:07;;;;;;;;;;;;;;;-14.17;100.00;100783.81;5013264;28;1055;-74
2021/12/26 06:15:35;;;;;;;;;;;;;;;-14.14;100.00;100786.47;5013462;28;1328;-73
2021/12/26 06:18:03;;;;;;;;;;;;;;;-14.08;100.00;100775.25;5029624;28;994;-73
2021/12/26 06:20:55;;;;;;;;;;;;;;;-13.96;100.00;100772.91;5014131;28;1149;-72
2021/12/26 06:23:40;;;;;;;;;;;;;;;-13.86;100.00;100773.97;5014401;28;971;-74
2021/12/26 06:26:41;;;;;;;;;;;;;;;-13.81;100.00;100777.53;5014217;28;1975;-74
2021/12/26 06:29:20;;;;;;;;;;;;;;;-13.79;100.00;100786.25;5013311;28;1501;-72
2021/12/26 06:32:08;;;;;;;;;;;;;;;-13.76;100.00;100786.34;5014038;28;1044;-73
2021/12/26 06:34:52;;;;;;;;;;;;;;;-13.83;100.00;100784.44;5013954;28;1389;-74
2021/12/26 06:37:54;;;;;;;;;;;;;;;-13.90;100.00;100788.66;5012342;28;1175;-74
2021/12/26 06:40:40;;;;;;;;;;;;;;;-13.97;100.00;100789.41;5012612;28;1313;-74
2021/12/26 06:43:33;;;;;;;;;;;;;;;-13.99;100.00;100791.09;5005207;28;1153;-73
2021/12/26 06:46:28;;;;;;;;;;;;;;;-14.00;100.00;100803.28;5013611;28;1894;-74
2021/12/26 06:49:16;;;;;;;;;;;;;;;-14.05;100.00;100784.03;5012747;28;979;-73
2021/12/26 06:51:42;;;;;;;;;;;;;;;-14.05;100.00;100791.88;5013667;28;994;-74
2021/12/26 06:54:08;;;;;;;;;;;;;;;-14.02;100.00;100798.88;5012197;28;1326;-73
2021/12/26 06:56:35;;;;;;;;;;;;;;;-14.01;100.00;100800.66;5012109;28;923;-74
2021/12/26 06:59:02;;;;;;;;;;;;;;;-14.05;100.00;100794.47;4995917;28;921;-75
2021/12/26 07:01:29;;;;;;;;;;;;;;;-14.05;100.00;100791.88;4996008;28;1271;-74
2021/12/26 07:03:55;;;;;;;;;;;;;;;-14.06;100.00;100797.94;5012151;28;979;-73
2021/12/26 07:06:25;;;;;;;;;;;;;;;-14.09;100.00;100792.66;5012072;28;1914;-74
2021/12/26 07:08:56;;;;;;;;;;;;;;;-14.10;100.00;100784.81;5008649;28;1594;-72
2021/12/26 07:11:23;;;;;;;;;;;;;;;-14.11;100.00;100799.56;4992727;28;987;-72
2021/12/26 07:13:49;;;;;;;;;;;;;;;-14.11;100.00;100798.69;4993783;28;904;-73
2021/12/26 07:16:16;;;;;;;;;;;;;;;-14.11;100.00;100799.56;4992145;28;1307;-73
2021/12/26 07:18:44;;;;;;;;;;;;;;;-14.11;100.00;100804.78;4992682;28;983;-74
2021/12/26 07:21:15;;;;;;;;;;;;;;;-14.13;100.00;100803.88;4992268;28;1359;-74
2021/12/26 07:24:02;;;;;;;;;;;;;;;-14.11;100.00;100803.91;4992272;28;1315;-73
2021/12/26 07:26:29;;;;;;;;;;;;;;;-14.12;100.00;100803.03;4992277;28;1985;-75
2021/12/26 07:28:55;;;;;;;;;;;;;;;-14.09;100.00;100803.09;4992302;28;979;-75
2021/12/26 07:31:23;;;;;;;;;;;;;;;-14.10;100.00;100801.31;4992423;28;1550;-71
2021/12/26 07:33:53;;;;;;;;;;;;;;;-14.04;100.00;100801.47;4990560;28;1490;-71
2021/12/26 07:36:19;;;;;;;;;;;;;;;-13.99;100.00;100805.06;5029272;23;3758;-77
2021/12/26 07:38:55;;;;;;;;;;;;;;;-13.93;100.00;100822.56;5030823;28;1464;-79
2021/12/26 07:41:26;;;;;;;;;;;;;;;-13.81;100.00;100808.88;5031820;28;1598;-76
2021/12/26 07:43:53;;;;;;;;;;;;;;;-13.67;100.00;100823.06;5031841;28;1495;-77
2021/12/26 07:46:19;;;;;;;;;;;;;;;-13.45;100.00;100827.78;5032625;28;1985;-77
2021/12/26 07:48:47;;;;;;;;;;;;;;;-13.19;100.00;100831.72;5016633;28;1382;-78
2021/12/26 07:51:34;;;;;;;;;;;;;;;-12.90;100.00;100830.47;5036357;28;1507;-78
2021/12/26 07:54:21;;;;;;;;;;;;;;;-12.62;100.00;100834.41;5033614;28;1612;-77
2021/12/26 07:57:08;;;;;;;;;;;;;;;-12.38;100.00;100839.09;5016384;28;1448;-79
2021/12/26 07:59:52;;;;;;;;;;;;;;;-12.08;100.00;100834.25;5031392;28;1672;-77
2021/12/26 08:02:37;;;;;;;;;;;;;;;-11.83;100.00;100838.03;5026616;28;1434;-79
2021/12/26 08:05:36;;;;;;;;;;;;;;;-11.59;100.00;100836.56;5015190;28;1911;-78
2021/12/26 08:08:20;;;;;;;;;;;;;;;-11.55;100.00;100833.13;5031275;28;1559;-78
2021/12/26 08:10:46;;;;;;;;;;;;;;;-11.61;100.00;100839.16;5031621;28;924;-79
2021/12/26 08:13:15;;;;;;;;;;;;;;;-11.66;100.00;100835.63;5032319;28;1529;-78
2021/12/26 08:15:41;;;;;;;;;;;;;;;-11.75;100.00;100830.28;5031348;28;1323;-77
2021/12/26 08:18:07;;;;;;;;;;;;;;;-11.71;100.00;100825.09;5030942;28;1531;-78
2021/12/26 08:20:34;;;;;;;;;;;;;;;-11.58;100.00;100828.72;5032595;28;851;-78
2021/12/26 08:23:01;;;;;;;;;;;;;;;-11.26;100.00;100830.81;5033196;28;1604;-78
2021/12/26 08:25:28;;;;;;;;;;;;;;;-10.85;100.00;100842.53;5032910;28;1903;-77
2021/12/26 08:27:54;;;;;;;;;;;;;;;-10.32;100.00;100834.13;5031966;28;1098;-78
2021/12/26 08:30:21;;;;;;;;;;;;;;;-9.75;100.00;100830.91;5034286;28;1593;-79
2021/12/26 08:32:51;;;;;;;;;;;;;;;-9.36;100.00;100825.78;5033893;28;1038;-78
2021/12/26 08:35:18;;;;;;;;;;;;;;;-8.92;100.00;100825.81;5033129;28;1478;-78
2021/12/26 08:37:46;;;;;;;;;;;;;;;-8.75;100.00;100824.94;5035268;28;1501;-78
2021/12/26 08:40:13;;;;;;;;;;;;;;;-8.35;100.00;100819.59;5033787;28;1613;-78
2021/12/26 08:42:40;;;;;;;;;;;;;;;-8.08;100.00;100828.31;5030003;28;1578;-79
2021/12/26 08:45:07;;;;;;;;;;;;;;;-7.71;100.00;100819.38;5035046;28;1482;-78
2021/12/26 08:47:34;;;;;;;;;;;;;;;-7.36;100.00;100816.56;5025399;28;1989;-77
2021/12/26 08:50:01;;;;;;;;;;;;;;;-7.10;100.00;100818.16;5036519;28;1090;-76
2021/12/26 08:52:27;;;;;;;;;;;;;;;-6.73;100.00;100817.88;5033022;28;1497;-77
2021/12/26 08:54:53;;;;;;;;;;;;;;;-6.57;100.00;100824.75;5033149;28;1613;-78
2021/12/26 08:57:19;;;;;;;;;;;;;;;-6.25;100.00;100822.72;5033242;28;1323;-78
2021/12/26 08:59:46;;;;;;;;;;;;;;;-6.04;100.00;100818.94;5032299;28;1584;-77
2021/12/26 09:02:12;;;;;;;;;;;;;;;-5.85;100.00;100818.69;5031450;28;1572;-74
2021/12/26 09:04:40;;;;;;;;;;;;;;;-5.64;100.00;100823.72;5033143;28;1510;-77
2021/12/26 09:07:07;;;;;;;;;;;;;;;-5.44;100.00;100814.63;5034545;28;1977;-76
2021/12/26 09:09:34;;;;;;;;;;;;;;;-5.00;100.00;100822.84;5037119;28;1521;-77
2021/12/26 09:12:00;;;;;;;;;;;;;;;-4.80;100.00;100833.13;5036186;28;1521;-77
2021/12/26 09:14:28;;;;;;;;;;;;;;;-4.75;100.00;100823.31;5035849;28;1530;-78
2021/12/26 09:16:54;;;;;;;;;;;;;;;-4.49;100.00;100822.00;5039493;28;1759;-76
2021/12/26 09:19:21;;;;;;;;;;;;;;;-4.15;100.00;100826.72;5031720;28;2883;-76
2021/12/26 09:21:48;;;;;;;;;;;;;;;-3.88;100.00;100831.47;5035031;28;1351;-77
2021/12/26 09:24:14;;;;;;;;;;;;;;;-3.47;100.00;100817.38;5033863;28;1226;-77
2021/12/26 09:26:41;;;;;;;;;;;;;;;-3.12;100.00;100827.22;5033380;28;1918;-76
2021/12/26 09:29:07;;;;;;;;;;;;;;;-2.65;100.00;100826.97;5035912;28;962;-76
2021/12/26 09:31:33;;;;;;;;;;;;;;;-2.48;100.00;100823.03;5026784;28;1050;-75
2021/12/26 09:34:00;;;;;;;;;;;;;;;-2.15;100.00;100826.59;5033748;28;991;-75
2021/12/26 09:36:26;;;;;;;;;;;;;;;-2.20;100.00;100832.03;5034247;28;1305;-76
2021/12/26 09:38:53;;;;;;;;;;;;;;;-2.02;100.00;100824.47;5033646;28;994;-76
2021/12/26 09:41:20;;;;;;;;;;;;;;;-1.98;100.00;100826.13;5034828;28;795;-76
2021/12/26 09:43:46;;;;;;;;;;;;;;;-2.20;100.00;100828.50;5034598;28;820;-76
2021/12/26 09:46:12;;;;;;;;;;;;;;;-2.36;100.00;100823.56;5034417;28;1911;-76
2021/12/26 09:48:38;;;;;;;;;;;;;;;-2.32;100.00;100823.53;5032004;28;1077;-76
2021/12/26 09:51:05;;;;;;;;;;;;;;;-2.41;100.00;100830.78;5025079;28;1422;-76
2021/12/26 09:53:37;;;;;;;;;;;;;;;-2.59;100.00;100825.94;5034277;28;825;-76
2021/12/26 09:56:06;;;;;;;;;;;;;;;-2.55;100.00;100825.84;5034039;28;1371;-76
2021/12/26 09:58:32;;;;;;;;;;;;;;;-2.49;100.00;100832.78;5034276;28;1011;-76
2021/12/26 10:00:58;;;;;;;;;;;;;;;-2.31;100.00;100826.13;5034161;28;955;-76
2021/12/26 10:03:28;;;;;;;;;;;;;;;-2.52;100.00;100827.56;5032205;28;1353;-73
2021/12/26 10:05:55;;;;;;;;;;;;;;;-2.66;100.00;100825.22;5033641;28;1985;-74
2021/12/26 10:08:21;;;;;;;;;;;;;;;-2.63;100.00;100819.84;5033975;28;1151;-74
2021/12/26 10:11:02;;;;;;;;;;;;;;;-2.70;100.00;100815.56;5033213;28;1482;-76
2021/12/26 10:13:46;;;;;;;;;;;;;;;-2.73;100.00;100818.31;5021767;28;1383;-75
2021/12/26 10:16:14;;;;;;;;;;;;;;;-2.79;100.00;100813.16;5017010;28;1533;-76
2021/12/26 10:18:41;;;;;;;;;;;;;;;-2.68;100.00;100812.91;5033208;28;907;-76
2021/12/26 10:21:27;;;;;;;;;;;;;;;-2.68;100.00;100804.94;5033899;28;1546;-76
2021/12/26 10:23:54;;;;;;;;;;;;;;;-2.77;100.00;100806.03;5033917;28;986;-76
2021/12/26 10:26:21;;;;;;;;;;;;;;;-3.11;100.00;100802.41;5013729;28;1918;-75
2021/12/26 10:29:02;;;;;;;;;;;;;;;-3.59;100.00;100800.81;5033129;28;1620;-75
2021/12/26 10:31:30;;;;;;;;;;;;;;;-3.82;100.00;100803.94;5026716;28;1528;-74
2021/12/26 10:33:56;;;;;;;;;;;;;;;-3.96;100.00;100801.56;5033497;28;882;-76
2021/12/26 10:36:23;;;;;;;;;;;;;;;-3.85;100.00;100798.69;5015100;28;2061;-75
2021/12/26 10:39:05;;;;;;;;;;;;;;;-3.72;100.00;100797.53;5032757;28;1022;-75
2021/12/26 10:41:31;;;;;;;;;;;;;;;-3.59;100.00;100792.84;5032330;28;1526;-76
2021/12/26 10:43:57;;;;;;;;;;;;;;;-3.51;100.00;100798.00;5033090;28;1589;-77
2021/12/26 10:46:23;;;;;;;;;;;;;;;-3.73;100.00;100797.56;5027895;28;1919;-76
2021/12/26 10:48:51;;;;;;;;;;;;;;;-3.63;100.00;100790.31;5025057;28;1144;-76
2021/12/26 10:51:32;;;;;;;;;;;;;;;-3.60;100.00;100793.75;5022202;28;1418;-75
2021/12/26 10:54:11;;;;;;;;;;;;;;;-3.37;100.00;100784.41;5012590;28;1011;-75
2021/12/26 10:56:38;;;;;;;;;;;;;;;-3.25;100.00;100789.41;5030537;28;1555;-75
2021/12/26 10:59:17;;;;;;;;;;;;;;;-3.20;100.00;100787.53;5033511;28;1505;-76
2021/12/26 11:01:43;;;;;;;;;;;;;;;-3.18;100.00;100783.97;5032418;28;1487;-76
2021/12/26 11:04:11;;;;;;;;;;;;;;;-3.14;100.00;100772.38;5033848;28;1493;-76
2021/12/26 11:06:52;;;;;;;;;;;;;;;-3.14;100.00;100777.69;5034120;28;1995;-76
2021/12/26 11:09:19;;;;;;;;;;;;;;;-3.09;100.00;100781.09;5036170;28;1625;-76
2021/12/26 11:11:57;;;;;;;;;;;;;;;-3.01;100.00;100784.44;5033206;28;1098;-76
2021/12/26 11:14:24;;;;;;;;;;;;;;;-3.06;100.00;100765.09;5033295;28;1470;-75
2021/12/26 11:16:50;;;;;;;;;;;;;;;-3.06;100.00;100762.44;5037410;28;1423;-77
2021/12/26 11:19:38;;;;;;;;;;;;;;;-3.05;100.00;100765.09;5035885;28;1553;-76
2021/12/26 11:22:04;;;;;;;;;;;;;;;-3.02;100.00;100769.41;5033562;28;1484;-77
2021/12/26 11:24:31;;;;;;;;;;;;;;;-3.01;100.00;100771.16;5033872;28;1543;-78
2021/12/26 11:26:57;;;;;;;;;;;;;;;-2.89;100.00;100770.00;5033908;28;1983;-75
2021/12/26 11:29:24;;;;;;;;;;;;;;;-2.88;100.00;100769.09;5032219;28;1526;-75
2021/12/26 11:31:53;;;;;;;;;;;;;;;-2.84;100.00;100777.88;5033260;28;994;-76
2021/12/26 11:34:21;;;;;;;;;;;;;;;-2.81;100.00;100764.50;5034253;28;1603;-77
2021/12/26 11:36:50;;;;;;;;;;;;;;;-2.92;100.00;100752.34;5034958;28;1340;-78
2021/12/26 11:39:37;;;;;;;;;;;;;;;-2.89;100.00;100760.22;5034422;28;1506;-76
2021/12/26 11:42:31;;;;;;;;;;;;;;;-2.82;100.00;100754.78;5018225;28;1331;-77
2021/12/26 11:45:21;;;;;;;;;;;;;;;-2.68;100.00;100743.81;5014683;28;1314;-77
2021/12/26 11:48:23;;;;;;;;;;;;;;;-2.65;100.00;100747.25;5040144;28;1984;-77
2021/12/26 11:51:18;;;;;;;;;;;;;;;-2.50;100.00;100750.41;5038884;28;1571;-78
2021/12/26 11:54:17;;;;;;;;;;;;;;;-2.51;100.00;100741.56;5038446;28;1526;-77
2021/12/26 11:56:55;;;;;;;;;;;;;;;-2.61;99.59;100737.41;5035877;28;1504;-77
2021/12/26 11:59:34;;;;;;;;;;;;;;;-2.64;98.92;100741.03;5037365;28;1165;-77
2021/12/26 12:02:00;;;;;;;;;;;;;;;-2.52;100.00;100730.06;5031532;28;1355;-79
2021/12/26 12:04:26;;;;;;;;;;;;;;;-2.50;100.00;100732.66;5029440;28;1350;-78
2021/12/26 12:06:55;;;;;;;;;;;;;;;-2.41;100.00;100728.91;5030301;28;1910;-76
2021/12/26 12:09:26;;;;;;;;;;;;;;;-2.40;100.00;100730.66;5047810;28;1080;-77
2021/12/26 12:11:56;;;;;;;;;;;;;;;-2.31;100.00;100729.50;5034810;28;1097;-77
2021/12/26 12:14:44;;;;;;;;;;;;;;;-2.34;100.00;100727.81;5049728;28;926;-77
2021/12/26 12:17:13;;;;;;;;;;;;;;;-2.39;100.00;100721.75;5052564;28;1361;-77
2021/12/26 12:20:06;;;;;;;;;;;;;;;-2.49;100.00;100729.09;5055363;28;774;-77
2021/12/26 12:22:33;;;;;;;;;;;;;;;-2.57;100.00;100728.44;5057345;28;918;-77
2021/12/26 12:25:30;;;;;;;;;;;;;;;-2.63;100.00;100724.16;5057875;28;1288;-77
2021/12/26 12:28:05;;;;;;;;;;;;;;;-2.71;100.00;100731.47;5035987;28;1918;-76
2021/12/26 12:30:31;;;;;;;;;;;;;;;-2.74;100.00;100723.56;5026974;28;1463;-75
2021/12/26 12:33:11;;;;;;;;;;;;;;;-2.88;100.00;100718.63;5013415;28;1380;-75
2021/12/26 12:35:48;;;;;;;;;;;;;;;-2.87;100.00;100717.72;5026300;28;1499;-76
2021/12/26 12:38:23;;;;;;;;;;;;;;;-2.70;100.00;100714.59;5029903;28;1547;-76
2021/12/26 12:40:49;;;;;;;;;;;;;;;-2.58;100.00;100710.72;5013811;28;1633;-74
2021/12/26 12:43:17;;;;;;;;;;;;;;;-2.41;100.00;100710.28;5030968;28;1573;-75
2021/12/26 12:46:04;;;;;;;;;;;;;;;-2.20;100.00;100706.16;5031151;28;1400;-75
2021/12/26 12:48:32;;;;;;;;;;;;;;;-1.86;100.00;100702.50;5010216;28;1985;-76
2021/12/26 12:51:00;;;;;;;;;;;;;;;-1.49;100.00;100704.03;5011947;28;936;-76
2021/12/26 12:53:42;;;;;;;;;;;;;;;-1.11;100.00;100703.69;5031289;28;1629;-74